Terminal Aerodrome Forecast
Issued by NWS

Home | Current Version | Previous Version | Text Only | Print | Product List | Glossary On
Versions: 1 2 3 4 5 6 7 8 9 10 11 12 13 14 15
000
FTUS41 KBGM 292325
TAFITH
TAF
KITH 292325Z 3000/3024 10008KT P6SM BKN090
      TEMPO 3014/3017 -SHRA OVC050
     FM301700 09007KT 6SM -RA OVC035
     FM302100 10008KT 5SM -RA BR OVC025
      TEMPO 3021/3024 2SM -RA BR OVC015=

USA.gov is the U.S. government's official web portal to all federal, state and local government web resources and services.